createdAt,value
2022-10-09T00:01:20.563Z,2.17
2022-10-09T00:04:22.210Z,2.20
2022-10-09T00:07:23.889Z,2.33
2022-10-09T00:10:25.750Z,2.30
2022-10-09T00:13:27.405Z,2.83
2022-10-09T00:16:29.337Z,2.10
2022-10-09T00:19:31.629Z,2.50
2022-10-09T00:22:34.485Z,2.00
2022-10-09T00:25:36.822Z,2.93
2022-10-09T00:28:39.137Z,2.20
2022-10-09T00:31:40.815Z,2.40
2022-10-09T00:34:42.664Z,2.23
2022-10-09T00:37:44.348Z,1.97
2022-10-09T00:40:46.125Z,1.80
2022-10-09T00:43:54.287Z,2.00
2022-10-09T00:46:55.946Z,2.07
2022-10-09T00:50:10.065Z,1.93
2022-10-09T00:53:17.163Z,2.80
2022-10-09T00:56:18.997Z,2.40
2022-10-09T00:59:21.220Z,1.70
2022-10-09T01:02:22.866Z,2.17
2022-10-09T01:05:46.760Z,2.00
2022-10-09T01:08:54.401Z,2.13
2022-10-09T01:12:02.671Z,2.10
2022-10-09T01:15:04.694Z,1.97
2022-10-09T01:18:16.121Z,1.77
2022-10-09T01:21:25.805Z,1.67
2022-10-09T01:24:41.984Z,2.20
2022-10-09T01:27:43.865Z,2.33
2022-10-09T01:30:46.569Z,2.23
2022-10-09T01:33:49.315Z,2.53
2022-10-09T01:36:52.131Z,2.70
2022-10-09T01:39:54.320Z,2.60
2022-10-09T01:42:56.381Z,2.43
2022-10-09T01:46:18.647Z,2.30
2022-10-09T01:49:32.267Z,1.90
2022-10-09T01:53:00.947Z,2.47
2022-10-09T01:56:09.297Z,3.07
2022-10-09T01:59:15.790Z,3.60
2022-10-09T02:02:18.823Z,3.83
2022-10-09T02:05:25.613Z,2.77
2022-10-09T02:08:29.112Z,2.70
2022-10-09T02:11:33.313Z,2.60
2022-10-09T02:14:35.885Z,2.30
2022-10-09T02:17:43.843Z,2.93
2022-10-09T02:20:50.412Z,2.87
2022-10-09T02:23:54.801Z,4.57
2022-10-09T02:26:58.394Z,2.43
2022-10-09T02:30:01.567Z,3.20
2022-10-09T02:33:05.222Z,2.57
2022-10-09T02:36:06.929Z,2.10
2022-10-09T02:39:09.163Z,1.90
2022-10-09T02:42:10.973Z,3.10
2022-10-09T02:45:13.031Z,1.97
2022-10-09T02:48:14.651Z,2.23
2022-10-09T02:51:16.776Z,2.43
2022-10-09T02:54:18.565Z,1.97
2022-10-09T02:57:20.216Z,2.00
2022-10-09T03:00:21.899Z,1.93
2022-10-09T03:03:23.702Z,1.70
2022-10-09T03:06:27.192Z,1.60
2022-10-09T03:09:33.391Z,1.57
2022-10-09T03:12:35.529Z,2.03
2022-10-09T03:15:37.574Z,2.00
2022-10-09T03:18:39.677Z,1.33
2022-10-09T03:21:41.339Z,1.43
2022-10-09T03:24:42.971Z,1.30
2022-10-09T03:27:44.622Z,1.10
2022-10-09T03:30:46.282Z,1.40
2022-10-09T03:33:48.085Z,0.80
2022-10-09T03:36:50.241Z,0.90
2022-10-09T03:39:51.933Z,1.10
2022-10-09T03:42:53.570Z,0.97
2022-10-09T03:45:59.239Z,1.13
2022-10-09T03:49:02.701Z,1.03
2022-10-09T03:52:04.519Z,1.40
2022-10-09T03:55:06.627Z,1.10
2022-10-09T03:58:08.768Z,1.03
2022-10-09T04:01:10.544Z,1.37
2022-10-09T04:04:12.273Z,1.50
2022-10-09T04:07:13.932Z,1.33
2022-10-09T04:10:15.924Z,1.17
2022-10-09T04:13:17.563Z,1.70
2022-10-09T04:16:19.223Z,2.50
2022-10-09T04:19:20.864Z,1.93
2022-10-09T04:22:22.660Z,2.07
2022-10-09T04:25:24.392Z,2.23
2022-10-09T04:28:30.614Z,1.77
2022-10-09T04:31:32.634Z,1.40
2022-10-09T04:34:34.317Z,1.20
2022-10-09T04:37:36.697Z,1.43
2022-10-09T04:40:38.564Z,1.30
2022-10-09T04:43:40.233Z,1.57
2022-10-09T04:46:42.215Z,2.13
2022-10-09T04:49:43.892Z,1.80
2022-10-09T04:52:45.886Z,1.73
2022-10-09T04:55:47.677Z,1.87
2022-10-09T04:58:49.576Z,1.13
2022-10-09T05:01:51.253Z,1.27
2022-10-09T05:04:52.996Z,1.40
2022-10-09T05:07:54.648Z,1.00
2022-10-09T05:11:03.999Z,1.33
2022-10-09T05:14:05.662Z,1.40
2022-10-09T05:17:14.155Z,1.30
2022-10-09T05:20:16.771Z,1.60
2022-10-09T05:23:18.453Z,1.30
2022-10-09T05:26:22.140Z,2.50
2022-10-09T05:29:23.787Z,2.37
2022-10-09T05:32:25.484Z,2.33
2022-10-09T05:35:27.129Z,1.67
2022-10-09T05:38:29.511Z,2.50
2022-10-09T05:41:31.214Z,2.60
2022-10-09T05:44:32.869Z,2.67
2022-10-09T05:47:34.538Z,3.10
2022-10-09T05:50:36.187Z,2.63
2022-10-09T05:53:39.223Z,2.40
2022-10-09T05:56:41.314Z,2.00
2022-10-09T05:59:43.770Z,2.00
2022-10-09T06:02:45.551Z,1.90
2022-10-09T06:05:47.241Z,1.87
2022-10-09T06:08:49.215Z,1.60
2022-10-09T06:11:52.170Z,1.77
2022-10-09T06:14:53.803Z,1.20
2022-10-09T06:17:55.450Z,2.17
2022-10-09T06:20:59.677Z,2.03
2022-10-09T06:24:04.071Z,2.53
2022-10-09T06:27:05.711Z,2.57
2022-10-09T06:30:08.003Z,3.10
2022-10-09T06:33:09.678Z,2.50
2022-10-09T06:36:12.462Z,2.47
2022-10-09T06:39:14.125Z,2.77
2022-10-09T06:42:17.029Z,2.63
2022-10-09T06:45:25.962Z,2.40
2022-10-09T06:48:32.146Z,2.10
2022-10-09T06:51:34.782Z,2.40
2022-10-09T06:54:36.412Z,2.53
2022-10-09T06:57:38.060Z,2.43
2022-10-09T07:00:39.732Z,3.10
2022-10-09T07:03:43.792Z,2.93
2022-10-09T07:06:47.578Z,3.47
2022-10-09T07:09:49.233Z,3.50
2022-10-09T07:12:51.174Z,3.27
2022-10-09T07:15:53.230Z,2.50
2022-10-09T07:18:55.356Z,3.00
2022-10-09T07:21:57.081Z,2.60
2022-10-09T07:24:58.795Z,3.20
2022-10-09T07:28:00.472Z,4.20
2022-10-09T07:31:05.942Z,4.17
2022-10-09T07:34:08.048Z,4.87
2022-10-09T07:37:09.701Z,6.13
2022-10-09T07:40:11.389Z,5.90
2022-10-09T07:43:13.033Z,6.27
2022-10-09T07:46:17.452Z,5.60
2022-10-09T07:49:19.543Z,5.47
2022-10-09T07:52:21.184Z,4.63
2022-10-09T07:55:22.885Z,4.57
2022-10-09T07:58:25.364Z,3.93
2022-10-09T08:01:28.331Z,4.43
2022-10-09T08:04:30.026Z,3.67
2022-10-09T08:07:34.917Z,4.63
2022-10-09T08:10:36.771Z,4.30
2022-10-09T08:13:39.351Z,3.83
2022-10-09T08:16:41.025Z,3.87
2022-10-09T08:19:42.680Z,4.03
2022-10-09T08:22:44.304Z,3.37
2022-10-09T08:25:47.473Z,3.77
2022-10-09T08:28:54.958Z,3.23
2022-10-09T08:31:56.665Z,2.83
2022-10-09T08:34:58.335Z,4.10
2022-10-09T08:38:00.035Z,3.70
2022-10-09T08:41:07.321Z,3.43
2022-10-09T08:44:20.323Z,3.57
2022-10-09T08:47:43.150Z,3.80
2022-10-09T08:50:50.007Z,4.13
2022-10-09T08:53:58.519Z,4.43
2022-10-09T08:57:04.084Z,4.53
2022-10-09T09:00:21.061Z,3.73
2022-10-09T09:03:35.268Z,3.53
2022-10-09T09:06:42.499Z,3.83
2022-10-09T09:09:53.756Z,4.00
2022-10-09T09:13:00.607Z,3.70
2022-10-09T09:16:14.225Z,3.70
2022-10-09T09:19:45.881Z,3.33
2022-10-09T09:22:50.100Z,2.93
2022-10-09T09:25:52.084Z,2.63
2022-10-09T09:29:00.286Z,2.33
2022-10-09T09:32:02.677Z,3.40
2022-10-09T09:35:21.746Z,2.87
2022-10-09T09:38:23.582Z,3.40
2022-10-09T09:41:25.419Z,2.50
2022-10-09T09:44:30.293Z,2.57
2022-10-09T09:47:41.515Z,2.47
2022-10-09T09:50:56.355Z,2.27
2022-10-09T09:54:15.593Z,3.20
2022-10-09T09:57:29.168Z,2.10
2022-10-09T10:00:31.021Z,2.47
2022-10-09T10:03:35.313Z,2.47
2022-10-09T10:06:44.220Z,2.70
2022-10-09T10:09:45.882Z,2.00
2022-10-09T10:12:53.780Z,2.00
2022-10-09T10:15:57.660Z,2.27
2022-10-09T10:18:59.486Z,2.97
2022-10-09T10:22:04.019Z,2.47
2022-10-09T10:25:11.505Z,2.17
2022-10-09T10:28:20.906Z,2.50
2022-10-09T10:31:40.311Z,2.17
2022-10-09T10:34:57.631Z,2.60
2022-10-09T10:38:23.856Z,2.77
2022-10-09T10:41:32.801Z,2.37
2022-10-09T10:44:46.858Z,2.60
2022-10-09T10:47:52.599Z,2.03
2022-10-09T10:51:26.469Z,3.27
2022-10-09T10:54:42.882Z,2.10
2022-10-09T10:58:05.689Z,2.47
2022-10-09T11:01:35.444Z,2.43
2022-10-09T11:04:55.818Z,2.27
2022-10-09T11:08:06.772Z,2.40
2022-10-09T11:11:46.658Z,1.70
2022-10-09T11:15:03.353Z,1.93
2022-10-09T11:18:17.194Z,1.90
2022-10-09T11:21:27.847Z,2.03
2022-10-09T11:24:41.815Z,1.40
2022-10-09T11:28:01.886Z,1.60
2022-10-09T11:31:08.639Z,1.37
2022-10-09T11:34:21.379Z,1.50
2022-10-09T11:37:28.300Z,0.97
2022-10-09T11:40:34.633Z,1.10
2022-10-09T11:44:03.350Z,1.37
2022-10-09T11:47:08.902Z,1.00
2022-10-09T11:50:42.079Z,0.90
2022-10-09T11:53:45.398Z,1.00
2022-10-09T11:56:55.851Z,0.60
2022-10-09T12:00:09.423Z,1.10
2022-10-09T12:03:24.553Z,1.13
2022-10-09T12:06:26.429Z,1.30
2022-10-09T12:09:30.881Z,1.23
2022-10-09T12:12:33.486Z,1.20
2022-10-09T12:15:52.313Z,0.80
2022-10-09T12:18:54.710Z,1.00
2022-10-09T12:22:04.817Z,1.13
2022-10-09T12:25:26.389Z,0.87
2022-10-09T12:28:38.308Z,0.67
2022-10-09T12:31:42.310Z,0.70
2022-10-09T12:34:48.360Z,0.77
2022-10-09T12:37:50.442Z,0.90
2022-10-09T12:40:54.197Z,0.97
2022-10-09T12:43:57.567Z,0.97
2022-10-09T12:47:03.884Z,0.70
2022-10-09T12:50:24.255Z,0.67
2022-10-09T12:53:27.424Z,0.70
2022-10-09T12:56:33.451Z,0.80
2022-10-09T12:59:35.165Z,0.70
2022-10-09T13:02:36.815Z,1.10
2022-10-09T13:05:40.671Z,1.50
2022-10-09T13:08:43.358Z,1.00
2022-10-09T13:11:51.122Z,0.80
2022-10-09T13:14:55.303Z,0.60
2022-10-09T13:17:57.089Z,0.93
2022-10-09T13:21:20.124Z,0.63
2022-10-09T13:24:21.771Z,1.00
2022-10-09T13:27:30.996Z,1.00
2022-10-09T13:30:33.464Z,0.87
2022-10-09T13:33:35.450Z,0.57
2022-10-09T13:36:37.141Z,0.50
2022-10-09T13:39:38.928Z,1.17
2022-10-09T13:42:40.964Z,1.20
2022-10-09T13:45:43.351Z,1.17
2022-10-09T13:48:45.387Z,0.70
2022-10-09T13:51:47.057Z,0.70
2022-10-09T13:54:48.715Z,0.80
2022-10-09T13:57:50.581Z,0.82
2022-10-09T14:00:52.681Z,0.80
2022-10-09T14:03:54.320Z,0.68
2022-10-09T14:06:56.141Z,0.88
2022-10-09T14:09:57.809Z,0.98
2022-10-09T14:12:59.487Z,0.88
2022-10-09T14:16:05.654Z,1.40
2022-10-09T14:19:07.386Z,0.68
2022-10-09T14:22:09.049Z,1.20
2022-10-09T14:25:10.920Z,0.77
2022-10-09T14:28:12.596Z,1.02
2022-10-09T14:31:17.255Z,0.82
2022-10-09T14:34:18.905Z,0.60
2022-10-09T14:37:39.803Z,0.70
2022-10-09T14:40:45.488Z,0.90
2022-10-09T14:43:48.626Z,0.63
2022-10-09T14:46:50.313Z,0.93
2022-10-09T14:49:52.162Z,1.00
2022-10-09T14:52:53.926Z,0.88
2022-10-09T14:55:55.584Z,0.45
2022-10-09T14:59:00.423Z,0.50
2022-10-09T15:02:02.453Z,0.65
2022-10-09T15:05:04.984Z,0.63
2022-10-09T15:08:07.260Z,0.70
2022-10-09T15:11:10.858Z,0.60
2022-10-09T15:14:13.369Z,0.88
2022-10-09T15:17:15.040Z,0.80
2022-10-09T15:20:16.736Z,1.30
2022-10-09T15:23:18.408Z,1.17
2022-10-09T15:26:20.055Z,0.60
2022-10-09T15:29:21.930Z,0.77
2022-10-09T15:32:24.241Z,0.70
2022-10-09T15:35:26.084Z,0.77
2022-10-09T15:38:27.743Z,0.60
2022-10-09T15:41:31.557Z,0.70
2022-10-09T15:44:33.223Z,0.70
2022-10-09T15:47:50.452Z,0.60
2022-10-09T15:50:53.645Z,0.60
2022-10-09T15:53:56.055Z,0.70
2022-10-09T15:56:57.705Z,0.53
2022-10-09T15:59:59.343Z,0.90
2022-10-09T16:03:01.006Z,1.37
2022-10-09T16:06:05.918Z,2.03
2022-10-09T16:09:08.284Z,2.70
2022-10-09T16:12:10.104Z,2.17
2022-10-09T16:15:11.766Z,1.87
2022-10-09T16:18:15.363Z,1.20
2022-10-09T16:21:22.657Z,0.90
2022-10-09T16:24:24.284Z,1.23
2022-10-09T16:27:25.937Z,1.27
2022-10-09T16:30:27.945Z,1.73
2022-10-09T16:33:29.882Z,1.70
2022-10-09T16:36:31.641Z,1.70
2022-10-09T16:39:33.336Z,0.73
2022-10-09T16:42:35.009Z,1.30
2022-10-09T16:45:36.699Z,1.20
2022-10-09T16:48:38.388Z,1.10
2022-10-09T16:51:40.138Z,1.60
2022-10-09T16:54:42.016Z,1.47
2022-10-09T16:57:43.835Z,2.10
2022-10-09T17:00:45.492Z,1.27
2022-10-09T17:03:47.319Z,2.00
2022-10-09T17:06:49.078Z,1.97
2022-10-09T17:09:51.847Z,1.63
2022-10-09T17:12:53.482Z,2.07
2022-10-09T17:15:55.176Z,2.13
2022-10-09T17:18:57.111Z,1.53
2022-10-09T17:22:00.677Z,1.50
2022-10-09T17:25:03.115Z,1.80
2022-10-09T17:28:08.022Z,2.00
2022-10-09T17:31:14.147Z,2.10
2022-10-09T17:34:16.270Z,1.60
2022-10-09T17:37:17.994Z,1.90
2022-10-09T17:40:19.623Z,1.73
2022-10-09T17:43:21.330Z,2.10
2022-10-09T17:46:24.349Z,1.90
2022-10-09T17:49:26.215Z,1.77
2022-10-09T17:52:27.878Z,2.43
2022-10-09T17:55:30.044Z,2.47
2022-10-09T17:58:31.714Z,2.90
2022-10-09T18:01:33.973Z,2.60
2022-10-09T18:04:35.732Z,3.07
2022-10-09T18:07:37.536Z,2.83
2022-10-09T18:10:39.605Z,2.17
2022-10-09T18:13:42.136Z,1.70
2022-10-09T18:16:44.161Z,1.73
2022-10-09T18:19:45.891Z,1.90
2022-10-09T18:22:47.867Z,1.90
2022-10-09T18:25:49.600Z,2.03
2022-10-09T18:28:51.318Z,8.33
2022-10-09T18:31:55.612Z,14.17
2022-10-09T18:34:57.436Z,9.27
2022-10-09T18:37:59.092Z,16.80
2022-10-09T18:41:01.964Z,10.37
2022-10-09T18:44:04.479Z,11.27
2022-10-09T18:47:11.628Z,11.93
2022-10-09T18:50:14.895Z,10.37
2022-10-09T18:53:16.731Z,9.90
2022-10-09T18:56:20.336Z,7.10
2022-10-09T18:59:22.711Z,5.60
2022-10-09T19:02:26.789Z,6.20
2022-10-09T19:05:28.663Z,7.30
2022-10-09T19:08:30.422Z,6.93
2022-10-09T19:11:33.832Z,5.90
2022-10-09T19:14:36.395Z,5.80
2022-10-09T19:17:38.061Z,5.80
2022-10-09T19:20:39.735Z,7.10
2022-10-09T19:23:42.003Z,5.20
2022-10-09T19:26:43.687Z,4.87
2022-10-09T19:29:45.407Z,4.33
2022-10-09T19:32:47.272Z,3.90
2022-10-09T19:35:52.094Z,3.13
2022-10-09T19:38:54.681Z,3.97
2022-10-09T19:41:56.389Z,4.57
2022-10-09T19:44:58.417Z,5.17
2022-10-09T19:48:00.479Z,4.40
2022-10-09T19:51:07.658Z,5.00
2022-10-09T19:54:10.065Z,4.63
2022-10-09T19:57:11.729Z,5.33
2022-10-09T20:00:13.826Z,4.40
2022-10-09T20:03:15.487Z,4.70
2022-10-09T20:06:17.112Z,5.30
2022-10-09T20:09:20.659Z,4.90
2022-10-09T20:12:22.570Z,4.53
2022-10-09T20:15:24.276Z,5.27
2022-10-09T20:18:26.760Z,5.43
2022-10-09T20:21:30.476Z,5.90
2022-10-09T20:24:32.136Z,4.40
2022-10-09T20:27:33.804Z,5.13
2022-10-09T20:30:35.470Z,4.77
2022-10-09T20:33:38.788Z,5.33
2022-10-09T20:36:40.525Z,6.07
2022-10-09T20:39:42.230Z,5.57
2022-10-09T20:42:44.001Z,6.60
2022-10-09T20:45:46.160Z,6.80
2022-10-09T20:48:48.084Z,7.23
2022-10-09T20:51:51.063Z,6.20
2022-10-09T20:54:52.718Z,8.07
2022-10-09T20:57:55.111Z,15.67
2022-10-09T21:00:57.222Z,6.87
2022-10-09T21:03:59.315Z,8.27
2022-10-09T21:07:01.096Z,9.67
2022-10-09T21:10:03.016Z,7.83
2022-10-09T21:13:04.669Z,8.20
2022-10-09T21:16:08.796Z,7.43
2022-10-09T21:19:11.379Z,5.80
2022-10-09T21:22:13.011Z,5.53
2022-10-09T21:25:14.708Z,5.80
2022-10-09T21:28:17.790Z,5.70
2022-10-09T21:31:22.846Z,4.93
2022-10-09T21:34:24.490Z,4.50
2022-10-09T21:37:26.119Z,4.63
2022-10-09T21:40:27.763Z,4.80
2022-10-09T21:43:29.542Z,3.67
2022-10-09T21:46:31.416Z,3.60
2022-10-09T21:49:33.068Z,4.40
2022-10-09T21:52:34.714Z,3.53
2022-10-09T21:55:37.883Z,3.80
2022-10-09T21:58:48.140Z,3.90
2022-10-09T22:01:50.553Z,3.50
2022-10-09T22:04:52.230Z,3.53
2022-10-09T22:07:53.864Z,3.90
2022-10-09T22:10:55.511Z,3.57
2022-10-09T22:13:57.255Z,3.17
2022-10-09T22:16:59.060Z,3.60
2022-10-09T22:20:00.734Z,3.83
2022-10-09T22:23:02.360Z,3.23
2022-10-09T22:26:11.103Z,3.70
2022-10-09T22:29:12.742Z,4.00
2022-10-09T22:32:14.368Z,3.90
2022-10-09T22:35:16.207Z,4.17
2022-10-09T22:38:17.871Z,4.50
2022-10-09T22:41:21.667Z,3.53
2022-10-09T22:44:23.369Z,4.20
2022-10-09T22:47:25.001Z,4.00
2022-10-09T22:50:26.645Z,5.53
2022-10-09T22:53:28.322Z,4.73
2022-10-09T22:56:41.176Z,4.53
2022-10-09T22:59:43.222Z,8.43
2022-10-09T23:02:44.878Z,7.50
2022-10-09T23:05:47.148Z,4.87
2022-10-09T23:08:49.642Z,4.57
2022-10-09T23:11:51.585Z,3.83
2022-10-09T23:14:53.413Z,5.03
2022-10-09T23:17:55.076Z,4.47
2022-10-09T23:20:56.915Z,4.27
2022-10-09T23:23:58.954Z,4.33
2022-10-09T23:27:00.590Z,4.67
2022-10-09T23:30:02.306Z,4.47
2022-10-09T23:33:04.118Z,3.67
2022-10-09T23:36:06.977Z,3.70
2022-10-09T23:39:08.829Z,4.10
2022-10-09T23:42:10.496Z,2.97
2022-10-09T23:45:12.228Z,3.20
2022-10-09T23:48:13.868Z,2.80
2022-10-09T23:51:17.229Z,3.57
2022-10-09T23:54:18.893Z,3.87
2022-10-09T23:57:20.565Z,4.10
